Terminal Aerodrome Forecast
Issued by NWS

Home | Current Version | Previous Version | Text Only | Print | Product List | Glossary On
Versions: 1 2 3 4 5 6 7 8 9 10 11 12 13 14 15 16 17
000
FTUS43 KAPX 221740
TAFAPN
TAF
KAPN 221740Z 2218/2318 27007KT P6SM BKN040
     FM230200 22004KT P6SM OVC040
     FM230400 22005KT P6SM OVC120
     FM231200 23007KT P6SM OVC045
     FM231600 24011G19KT P6SM OVC040=

USA.gov is the U.S. government's official web portal to all federal, state and local government web resources and services.